logo tempoitalia

Diretta Meteo Varna, Bulgarialunedì 31 agosto ore 08:30

Mappa
Sereno 19 °C Sereno 24 Ore: T.min 15 T.max 30
Ponente Nord Km/h 3.7 Punto di rugiada: 15 °C Umidità: 77% Visibilità: 10 Km
Il sole sorge alle: 06:31 Il sole tramonta alle: 19:45
31 Agosto 2026 08:30 tempo osservato: Sereno Sereno 19 77 1018 vento: Nord N 3.7
31 Agosto 2026 08:00 tempo osservato: Sereno Sereno 17 93 1018 vento: Nord N 3.7
31 Agosto 2026 07:30 tempo osservato: Sereno Sereno 16 100 1017 vento: Nord N 3.7
31 Agosto 2026 07:00 tempo osservato: Sereno Sereno 15 100 1017 vento: Nord N 5.5
31 Agosto 2026 06:30 tempo osservato: Sereno Sereno 15 100 1017 vento: Nord N 0
31 Agosto 2026 06:00 tempo osservato: Sereno Sereno 16 100 1017 vento: Nord N 3.7
31 Agosto 2026 05:30 tempo osservato: Sereno Sereno 16 100 1017 vento: Nord N 5.5
31 Agosto 2026 05:00 tempo osservato: Sereno Sereno 16 87 1017 vento: Nord N 3.7
31 Agosto 2026 04:30 tempo osservato: Sereno Sereno 16 93 1017 vento: Nord N 5.5
31 Agosto 2026 04:00 tempo osservato: Sereno Sereno 16 87 1017 vento: Nord N 3.7
31 Agosto 2026 03:30 tempo osservato: Sereno Sereno 16 87 1017 vento: Nord N 0
31 Agosto 2026 03:00 tempo osservato: Sereno Sereno 16 87 1017 vento: Nord N 5.5
31 Agosto 2026 02:30 tempo osservato: Sereno Sereno 17 88 1017 vento: Nord N 3.7
31 Agosto 2026 02:00 tempo osservato: Sereno Sereno 17 88 1018 vento: Nord N 5.5
31 Agosto 2026 01:30 tempo osservato: Sereno Sereno 18 82 1018 vento: Nord N 3.7
31 Agosto 2026 01:00 tempo osservato: Sereno Sereno 18 82 1018 vento: Nord O 7.4
31 Agosto 2026 00:30 tempo osservato: Sereno Sereno 19 77 1018 vento: Nord N 3.7
31 Agosto 2026 00:00 tempo osservato: Sereno Sereno 20 72 1017 vento: Nord NE 7.4
30 Agosto 2026 23:30 tempo osservato: Sereno Sereno 21 73 1018 vento: Nord N 1.8
30 Agosto 2026 23:00 tempo osservato: Sereno Sereno 20 77 1017 vento: Nord N 1.8
30 Agosto 2026 22:30 tempo osservato: Sereno Sereno 20 77 1018 vento: Nord N 3.7
30 Agosto 2026 22:00 tempo osservato: Sereno Sereno 20 77 1017 vento: Nord N/NE 7.4
30 Agosto 2026 21:30 tempo osservato: Sereno Sereno 21 68 1017 vento: Nord N/NE 9.3
30 Agosto 2026 21:00 tempo osservato: Sereno Sereno 21 64 1017 vento: Nord N 5.5
30 Agosto 2026 20:30 tempo osservato: Sereno Sereno 23 60 1017 vento: Nord E/SE 7.4
30 Agosto 2026 20:00 tempo osservato: Sereno Sereno 23 56 1016 vento: Nord E 13
30 Agosto 2026 19:30 tempo osservato: Sereno Sereno 25 53 1016 vento: Nord E/SE 9.3
30 Agosto 2026 19:00 tempo osservato: Sereno Sereno 26 50 1016 vento: Nord E/SE 14.8
30 Agosto 2026 18:30 tempo osservato: Sereno Sereno 27 47 1016 vento: Nord S/SE 14.8
30 Agosto 2026 18:00 tempo osservato: Sereno Sereno 28 37 1016 vento: Nord E/SE 20.3
30 Agosto 2026 17:30 tempo osservato: Sereno Sereno 28 37 1016 vento: Nord SE 24
30 Agosto 2026 17:00 tempo osservato: Sereno Sereno 27 54 1016 vento: Nord SE 20.3
30 Agosto 2026 16:30 tempo osservato: Sereno Sereno 28 58 1016 vento: Nord E/SE 22.2
30 Agosto 2026 16:00 tempo osservato: Poco Nuvoloso Poco Nuvoloso 27 65 1016 vento: Nord SE 22.2
30 Agosto 2026 15:30 tempo osservato: Poco Nuvoloso Poco Nuvoloso 27 61 1016 vento: Nord SE 18.5
30 Agosto 2026 15:00 tempo osservato: Poco Nuvoloso Poco Nuvoloso 27 61 1017 vento: Nord SE 20.3
30 Agosto 2026 14:30 tempo osservato: Poco Nuvoloso Poco Nuvoloso 27 61 1016 vento: Nord SE 24
30 Agosto 2026 14:00 tempo osservato: Poco Nuvoloso Poco Nuvoloso 28 51 1016 vento: Nord SE 22.2
30 Agosto 2026 13:30 tempo osservato: Poco Nuvoloso Poco Nuvoloso 29 48 1016 vento: Nord SE 20.3
30 Agosto 2026 13:00 tempo osservato: Poco Nuvoloso Poco Nuvoloso 29 48 1016 vento: Nord SE 20.3
30 Agosto 2026 12:30 tempo osservato: Poco Nuvoloso Poco Nuvoloso 28 51 1017 vento: Nord SE 20.3
30 Agosto 2026 12:00 tempo osservato: Sereno Sereno 30 40 1017 vento: Nord E/SE 11.1
30 Agosto 2026 11:30 tempo osservato: Sereno Sereno 29 42 1017 vento: Nord NE 13
30 Agosto 2026 11:00 tempo osservato: Sereno Sereno 29 39 1017 vento: Nord N/NE 9.3
30 Agosto 2026 10:30 tempo osservato: Sereno Sereno 27 47 1017 vento: Nord N 9.3
30 Agosto 2026 10:00 tempo osservato: Sereno Sereno 25 57 1017 vento: Nord SO 9.3